map of TKU home
TKU - Airport
Location
City:  Turku, Varsinais-Suomi (Egentliga Finland, Southwest Finland), Finland
ICAO:EFTU
IATA:TKU

Details
Type:Airport (Aerodrome, Airfield)
Use:Public/Civil, International (customs port of entry)
Latitude:6030'51"N (60.514142)
Longitude:2215'46"E (22.262808)
Datum:WGS 1984
Elevation:161 ft (49 m)
Variation:8.30E (WMM2015v2 magnetic declination)
0.20 annual change
Runways:1
Longest:8202 × 197 ft (2500 × 60 m), paved

Time
Time Zone:UTC+2 (DST+3)
Local Time:

Weather
METAR:EFTU 041420Z AUTO 27010KT 9999 -SN OVC016/// M06/M08 Q1016
TAF:EFTU 041123Z 0412/0512 27009KT 9999 BKN020
TEMPO 0412/0414 5000 -SN BKN012
BECMG 0421/0423 BKN008
BECMG 0500/0502 2000 -SN BKN004
TEMPO 0504/0512 2000 BKN005
BECMG 0506/0508 20010KT

Related Locations
Nearby:
Farthest:NZTB: 11069 mi / 17814 km
Terra Nova Bay [Mario Zucchelli Station], AQ

Find:

   beyond  
but within

Other Information
Maps:
NOTAMs:
Links:
Sources:

  
  • flag of Finland
  

Sectional Chart

Flight Planning
at skyvector.com

Satellite Image

Google Maps Satellite view

 

Copyright © 2004-2019 Karl L. Swartz. All rights reserved.
The Great Circle Mapper name and logo are trademarks of the Great Circle Mapper.
All other trademarks mentioned herein belong to their respective owners.
Please see credits for attibutions and further copyright information.

  Follow gcmap on Facebook Follow gcmap on Twitter GCmap on LinkedIn

hCard Microformat

Geo Microformat